sensor_id;sensor_type;location;lat;lon;timestamp;P1;durP1;ratioP1;P2;durP2;ratioP2
6143;SDS011;3103;49.492;8.474;2023-11-19T00:00:18;4.57;;;3.33;;
6143;SDS011;3103;49.492;8.474;2023-11-19T00:02:45;10.80;;;6.23;;
6143;SDS011;3103;49.492;8.474;2023-11-19T00:05:14;3.83;;;2.80;;
6143;SDS011;3103;49.492;8.474;2023-11-19T00:07:41;4.37;;;3.20;;
6143;SDS011;3103;49.492;8.474;2023-11-19T00:10:09;6.30;;;4.47;;
6143;SDS011;3103;49.492;8.474;2023-11-19T00:12:45;2.83;;;2.53;;
6143;SDS011;3103;49.492;8.474;2023-11-19T00:15:14;5.80;;;3.73;;
6143;SDS011;3103;49.492;8.474;2023-11-19T00:17:42;4.97;;;3.20;;
6143;SDS011;3103;49.492;8.474;2023-11-19T00:20:15;4.80;;;2.93;;
6143;SDS011;3103;49.492;8.474;2023-11-19T00:22:45;4.23;;;3.00;;
6143;SDS011;3103;49.492;8.474;2023-11-19T00:25:18;7.33;;;3.50;;
6143;SDS011;3103;49.492;8.474;2023-11-19T00:27:46;4.50;;;3.30;;
6143;SDS011;3103;49.492;8.474;2023-11-19T00:30:14;7.33;;;4.30;;
6143;SDS011;3103;49.492;8.474;2023-11-19T00:32:41;3.63;;;2.50;;
6143;SDS011;3103;49.492;8.474;2023-11-19T00:35:08;4.33;;;3.07;;
6143;SDS011;3103;49.492;8.474;2023-11-19T00:37:42;3.13;;;2.67;;
6143;SDS011;3103;49.492;8.474;2023-11-19T00:40:09;3.17;;;2.20;;
6143;SDS011;3103;49.492;8.474;2023-11-19T00:42:38;4.10;;;2.87;;
6143;SDS011;3103;49.492;8.474;2023-11-19T00:45:05;5.70;;;3.43;;
6143;SDS011;3103;49.492;8.474;2023-11-19T00:47:36;3.50;;;2.57;;
6143;SDS011;3103;49.492;8.474;2023-11-19T00:50:05;4.63;;;3.10;;
6143;SDS011;3103;49.492;8.474;2023-11-19T00:52:32;3.70;;;2.47;;
6143;SDS011;3103;49.492;8.474;2023-11-19T00:55:00;4.03;;;3.00;;
6143;SDS011;3103;49.492;8.474;2023-11-19T00:57:29;2.80;;;2.50;;
6143;SDS011;3103;49.492;8.474;2023-11-19T00:59:57;3.03;;;2.57;;
6143;SDS011;3103;49.492;8.474;2023-11-19T01:02:24;2.17;;;1.80;;
6143;SDS011;3103;49.492;8.474;2023-11-19T01:04:51;3.13;;;2.13;;
6143;SDS011;3103;49.492;8.474;2023-11-19T01:07:20;2.10;;;1.90;;
6143;SDS011;3103;49.492;8.474;2023-11-19T01:09:48;6.23;;;4.40;;
6143;SDS011;3103;49.492;8.474;2023-11-19T01:12:15;3.47;;;2.50;;
6143;SDS011;3103;49.492;8.474;2023-11-19T01:14:42;6.43;;;3.57;;
6143;SDS011;3103;49.492;8.474;2023-11-19T01:17:10;3.10;;;2.60;;
6143;SDS011;3103;49.492;8.474;2023-11-19T01:19:37;3.03;;;2.17;;
6143;SDS011;3103;49.492;8.474;2023-11-19T01:22:06;7.37;;;4.07;;
6143;SDS011;3103;49.492;8.474;2023-11-19T01:24:33;5.00;;;3.17;;
6143;SDS011;3103;49.492;8.474;2023-11-19T01:27:00;4.57;;;3.17;;
6143;SDS011;3103;49.492;8.474;2023-11-19T01:29:27;5.83;;;3.67;;
6143;SDS011;3103;49.492;8.474;2023-11-19T01:31:54;9.63;;;5.50;;
6143;SDS011;3103;49.492;8.474;2023-11-19T01:34:21;4.23;;;2.80;;
6143;SDS011;3103;49.492;8.474;2023-11-19T01:36:48;17.07;;;10.17;;
6143;SDS011;3103;49.492;8.474;2023-11-19T01:39:15;14.73;;;9.00;;
6143;SDS011;3103;49.492;8.474;2023-11-19T01:41:43;4.00;;;2.80;;
6143;SDS011;3103;49.492;8.474;2023-11-19T01:44:10;3.70;;;2.17;;
6143;SDS011;3103;49.492;8.474;2023-11-19T01:46:43;5.83;;;3.63;;
6143;SDS011;3103;49.492;8.474;2023-11-19T01:49:12;4.50;;;2.83;;
6143;SDS011;3103;49.492;8.474;2023-11-19T01:51:42;2.33;;;1.90;;
6143;SDS011;3103;49.492;8.474;2023-11-19T01:54:09;1.83;;;1.63;;
6143;SDS011;3103;49.492;8.474;2023-11-19T01:56:37;5.37;;;3.20;;
6143;SDS011;3103;49.492;8.474;2023-11-19T01:59:09;2.00;;;1.50;;
6143;SDS011;3103;49.492;8.474;2023-11-19T02:01:38;3.30;;;2.67;;
6143;SDS011;3103;49.492;8.474;2023-11-19T02:04:07;1.57;;;1.40;;
6143;SDS011;3103;49.492;8.474;2023-11-19T02:06:37;2.67;;;1.50;;
6143;SDS011;3103;49.492;8.474;2023-11-19T02:09:09;6.30;;;3.73;;
6143;SDS011;3103;49.492;8.474;2023-11-19T02:11:36;4.33;;;3.23;;
6143;SDS011;3103;49.492;8.474;2023-11-19T02:14:07;1.60;;;1.50;;
6143;SDS011;3103;49.492;8.474;2023-11-19T02:16:34;2.43;;;2.10;;
6143;SDS011;3103;49.492;8.474;2023-11-19T02:19:02;4.40;;;2.87;;
6143;SDS011;3103;49.492;8.474;2023-11-19T02:21:50;4.13;;;3.00;;
6143;SDS011;3103;49.492;8.474;2023-11-19T02:24:16;1.47;;;1.37;;
6143;SDS011;3103;49.492;8.474;2023-11-19T02:30:13;2.33;;;1.50;;
6143;SDS011;3103;49.492;8.474;2023-11-19T02:32:42;3.60;;;1.93;;
6143;SDS011;3103;49.492;8.474;2023-11-19T02:35:09;3.07;;;2.07;;
6143;SDS011;3103;49.492;8.474;2023-11-19T02:37:38;5.87;;;4.07;;
6143;SDS011;3103;49.492;8.474;2023-11-19T02:40:05;2.47;;;1.73;;
6143;SDS011;3103;49.492;8.474;2023-11-19T02:42:36;2.93;;;2.50;;
6143;SDS011;3103;49.492;8.474;2023-11-19T02:45:03;2.10;;;1.57;;
6143;SDS011;3103;49.492;8.474;2023-11-19T02:47:34;2.13;;;1.93;;
6143;SDS011;3103;49.492;8.474;2023-11-19T02:50:01;3.00;;;2.10;;
6143;SDS011;3103;49.492;8.474;2023-11-19T02:52:29;1.60;;;1.50;;
6143;SDS011;3103;49.492;8.474;2023-11-19T02:55:01;2.70;;;2.37;;
6143;SDS011;3103;49.492;8.474;2023-11-19T02:57:30;2.00;;;1.80;;
6143;SDS011;3103;49.492;8.474;2023-11-19T02:59:58;1.60;;;1.50;;
6143;SDS011;3103;49.492;8.474;2023-11-19T03:02:26;1.97;;;1.70;;
6143;SDS011;3103;49.492;8.474;2023-11-19T03:05:00;1.93;;;1.63;;
6143;SDS011;3103;49.492;8.474;2023-11-19T03:07:28;2.13;;;1.60;;
6143;SDS011;3103;49.492;8.474;2023-11-19T03:09:55;1.47;;;1.37;;
6143;SDS011;3103;49.492;8.474;2023-11-19T03:12:22;1.77;;;1.67;;
6143;SDS011;3103;49.492;8.474;2023-11-19T03:14:48;2.43;;;2.03;;
6143;SDS011;3103;49.492;8.474;2023-11-19T03:17:17;1.47;;;1.30;;
6143;SDS011;3103;49.492;8.474;2023-11-19T03:19:45;1.77;;;1.50;;
6143;SDS011;3103;49.492;8.474;2023-11-19T03:22:12;1.20;;;1.10;;
6143;SDS011;3103;49.492;8.474;2023-11-19T03:24:39;1.30;;;1.20;;
6143;SDS011;3103;49.492;8.474;2023-11-19T03:27:06;2.00;;;1.83;;
6143;SDS011;3103;49.492;8.474;2023-11-19T03:29:33;2.00;;;1.80;;
6143;SDS011;3103;49.492;8.474;2023-11-19T03:32:00;1.80;;;1.67;;
6143;SDS011;3103;49.492;8.474;2023-11-19T03:34:26;2.70;;;1.60;;
6143;SDS011;3103;49.492;8.474;2023-11-19T03:36:53;2.30;;;1.83;;
6143;SDS011;3103;49.492;8.474;2023-11-19T03:39:20;1.50;;;1.40;;
6143;SDS011;3103;49.492;8.474;2023-11-19T03:41:47;2.60;;;1.20;;
6143;SDS011;3103;49.492;8.474;2023-11-19T03:44:14;1.80;;;1.40;;
6143;SDS011;3103;49.492;8.474;2023-11-19T03:46:41;2.07;;;1.77;;
6143;SDS011;3103;49.492;8.474;2023-11-19T03:49:08;2.43;;;1.50;;
6143;SDS011;3103;49.492;8.474;2023-11-19T03:51:35;1.67;;;1.57;;
6143;SDS011;3103;49.492;8.474;2023-11-19T03:54:02;1.80;;;1.67;;
6143;SDS011;3103;49.492;8.474;2023-11-19T03:56:29;1.57;;;1.47;;
6143;SDS011;3103;49.492;8.474;2023-11-19T03:58:58;1.93;;;1.70;;
6143;SDS011;3103;49.492;8.474;2023-11-19T04:01:25;2.00;;;1.50;;
6143;SDS011;3103;49.492;8.474;2023-11-19T04:03:52;2.07;;;1.57;;
6143;SDS011;3103;49.492;8.474;2023-11-19T04:06:19;1.70;;;1.60;;
6143;SDS011;3103;49.492;8.474;2023-11-19T04:08:46;1.53;;;1.40;;
6143;SDS011;3103;49.492;8.474;2023-11-19T04:11:12;1.50;;;1.40;;
6143;SDS011;3103;49.492;8.474;2023-11-19T04:13:40;1.57;;;1.27;;
6143;SDS011;3103;49.492;8.474;2023-11-19T04:16:08;1.30;;;1.20;;
6143;SDS011;3103;49.492;8.474;2023-11-19T04:18:34;1.57;;;1.47;;
6143;SDS011;3103;49.492;8.474;2023-11-19T04:21:05;1.60;;;1.50;;
6143;SDS011;3103;49.492;8.474;2023-11-19T04:23:32;1.60;;;1.50;;
6143;SDS011;3103;49.492;8.474;2023-11-19T04:26:02;1.60;;;1.50;;
6143;SDS011;3103;49.492;8.474;2023-11-19T04:28:33;1.60;;;1.50;;
6143;SDS011;3103;49.492;8.474;2023-11-19T04:31:00;1.50;;;1.40;;
6143;SDS011;3103;49.492;8.474;2023-11-19T04:33:27;1.80;;;1.70;;
6143;SDS011;3103;49.492;8.474;2023-11-19T04:35:54;2.50;;;1.80;;
6143;SDS011;3103;49.492;8.474;2023-11-19T04:38:21;3.37;;;1.57;;
6143;SDS011;3103;49.492;8.474;2023-11-19T04:40:47;1.70;;;1.60;;
6143;SDS011;3103;49.492;8.474;2023-11-19T04:43:15;1.90;;;1.67;;
6143;SDS011;3103;49.492;8.474;2023-11-19T04:45:42;1.87;;;1.73;;
6143;SDS011;3103;49.492;8.474;2023-11-19T04:48:09;2.27;;;1.90;;
6143;SDS011;3103;49.492;8.474;2023-11-19T04:50:36;4.20;;;1.87;;
6143;SDS011;3103;49.492;8.474;2023-11-19T04:53:03;1.53;;;1.40;;
6143;SDS011;3103;49.492;8.474;2023-11-19T04:55:31;1.53;;;1.30;;
6143;SDS011;3103;49.492;8.474;2023-11-19T04:57:59;1.40;;;1.30;;
6143;SDS011;3103;49.492;8.474;2023-11-19T05:00:26;2.20;;;1.30;;
6143;SDS011;3103;49.492;8.474;2023-11-19T05:02:53;1.63;;;1.53;;
6143;SDS011;3103;49.492;8.474;2023-11-19T05:05:20;1.63;;;1.30;;
6143;SDS011;3103;49.492;8.474;2023-11-19T05:07:47;1.17;;;1.10;;
6143;SDS011;3103;49.492;8.474;2023-11-19T05:10:14;1.70;;;1.50;;
6143;SDS011;3103;49.492;8.474;2023-11-19T05:12:41;1.93;;;1.60;;
6143;SDS011;3103;49.492;8.474;2023-11-19T05:15:08;2.07;;;1.30;;
6143;SDS011;3103;49.492;8.474;2023-11-19T05:17:35;1.37;;;1.27;;
6143;SDS011;3103;49.492;8.474;2023-11-19T05:20:04;1.83;;;1.63;;
6143;SDS011;3103;49.492;8.474;2023-11-19T05:22:31;3.03;;;1.80;;
6143;SDS011;3103;49.492;8.474;2023-11-19T05:24:59;1.97;;;1.77;;
6143;SDS011;3103;49.492;8.474;2023-11-19T05:27:26;1.50;;;1.40;;
6143;SDS011;3103;49.492;8.474;2023-11-19T05:29:53;2.37;;;1.60;;
6143;SDS011;3103;49.492;8.474;2023-11-19T05:32:20;3.67;;;1.47;;
6143;SDS011;3103;49.492;8.474;2023-11-19T05:34:47;2.77;;;2.20;;
6143;SDS011;3103;49.492;8.474;2023-11-19T05:37:18;2.47;;;2.00;;
6143;SDS011;3103;49.492;8.474;2023-11-19T05:39:47;2.30;;;1.60;;
6143;SDS011;3103;49.492;8.474;2023-11-19T05:42:13;1.70;;;1.50;;
6143;SDS011;3103;49.492;8.474;2023-11-19T05:44:40;1.50;;;1.40;;
6143;SDS011;3103;49.492;8.474;2023-11-19T05:47:07;5.47;;;2.50;;
6143;SDS011;3103;49.492;8.474;2023-11-19T05:49:34;2.83;;;2.20;;
6143;SDS011;3103;49.492;8.474;2023-11-19T05:52:01;1.50;;;1.40;;
6143;SDS011;3103;49.492;8.474;2023-11-19T05:54:30;3.00;;;1.80;;
6143;SDS011;3103;49.492;8.474;2023-11-19T05:57:00;2.47;;;1.33;;
6143;SDS011;3103;49.492;8.474;2023-11-19T05:59:27;1.83;;;1.60;;
6143;SDS011;3103;49.492;8.474;2023-11-19T06:01:54;3.67;;;2.03;;
6143;SDS011;3103;49.492;8.474;2023-11-19T06:04:21;1.97;;;1.40;;
6143;SDS011;3103;49.492;8.474;2023-11-19T06:06:48;2.53;;;1.97;;
6143;SDS011;3103;49.492;8.474;2023-11-19T06:09:15;2.07;;;1.87;;
6143;SDS011;3103;49.492;8.474;2023-11-19T06:11:41;3.93;;;1.33;;
6143;SDS011;3103;49.492;8.474;2023-11-19T06:14:08;1.33;;;1.23;;
6143;SDS011;3103;49.492;8.474;2023-11-19T06:16:35;1.97;;;1.60;;
6143;SDS011;3103;49.492;8.474;2023-11-19T06:19:03;2.77;;;2.00;;
6143;SDS011;3103;49.492;8.474;2023-11-19T06:21:31;2.57;;;1.57;;
6143;SDS011;3103;49.492;8.474;2023-11-19T06:23:58;2.27;;;1.80;;
6143;SDS011;3103;49.492;8.474;2023-11-19T06:26:25;1.87;;;1.63;;
6143;SDS011;3103;49.492;8.474;2023-11-19T06:28:53;3.20;;;1.67;;
6143;SDS011;3103;49.492;8.474;2023-11-19T06:31:20;1.37;;;1.27;;
6143;SDS011;3103;49.492;8.474;2023-11-19T06:33:48;1.87;;;1.53;;
6143;SDS011;3103;49.492;8.474;2023-11-19T06:36:15;1.77;;;1.63;;
6143;SDS011;3103;49.492;8.474;2023-11-19T06:38:46;2.70;;;2.13;;
6143;SDS011;3103;49.492;8.474;2023-11-19T06:41:14;4.90;;;2.00;;
6143;SDS011;3103;49.492;8.474;2023-11-19T06:43:41;1.63;;;1.53;;
6143;SDS011;3103;49.492;8.474;2023-11-19T06:46:15;2.37;;;1.77;;
6143;SDS011;3103;49.492;8.474;2023-11-19T06:48:44;4.10;;;2.10;;
6143;SDS011;3103;49.492;8.474;2023-11-19T06:51:12;4.67;;;1.87;;
6143;SDS011;3103;49.492;8.474;2023-11-19T06:53:42;2.50;;;2.30;;
6143;SDS011;3103;49.492;8.474;2023-11-19T06:56:18;4.77;;;2.60;;
6143;SDS011;3103;49.492;8.474;2023-11-19T06:58:53;3.30;;;3.00;;
6143;SDS011;3103;49.492;8.474;2023-11-19T07:01:20;3.40;;;2.80;;
6143;SDS011;3103;49.492;8.474;2023-11-19T07:03:47;4.77;;;2.60;;
6143;SDS011;3103;49.492;8.474;2023-11-19T07:06:15;6.67;;;2.63;;
6143;SDS011;3103;49.492;8.474;2023-11-19T07:08:42;4.23;;;2.90;;
6143;SDS011;3103;49.492;8.474;2023-11-19T07:11:13;3.67;;;2.40;;
6143;SDS011;3103;49.492;8.474;2023-11-19T07:13:41;5.00;;;2.87;;
6143;SDS011;3103;49.492;8.474;2023-11-19T07:16:08;3.27;;;1.77;;
6143;SDS011;3103;49.492;8.474;2023-11-19T07:18:38;3.30;;;1.53;;
6143;SDS011;3103;49.492;8.474;2023-11-19T07:21:05;2.93;;;1.90;;
6143;SDS011;3103;49.492;8.474;2023-11-19T07:23:32;1.93;;;1.60;;
6143;SDS011;3103;49.492;8.474;2023-11-19T07:26:01;2.63;;;1.30;;
6143;SDS011;3103;49.492;8.474;2023-11-19T07:28:28;2.67;;;1.33;;
6143;SDS011;3103;49.492;8.474;2023-11-19T07:30:55;1.90;;;1.20;;
6143;SDS011;3103;49.492;8.474;2023-11-19T07:33:25;1.20;;;1.10;;
6143;SDS011;3103;49.492;8.474;2023-11-19T07:35:52;1.97;;;1.33;;
6143;SDS011;3103;49.492;8.474;2023-11-19T07:38:19;1.43;;;1.33;;
6143;SDS011;3103;49.492;8.474;2023-11-19T07:40:46;1.77;;;1.17;;
6143;SDS011;3103;49.492;8.474;2023-11-19T07:43:16;7.03;;;1.40;;
6143;SDS011;3103;49.492;8.474;2023-11-19T07:45:43;1.80;;;1.10;;
6143;SDS011;3103;49.492;8.474;2023-11-19T07:48:11;2.27;;;1.50;;
6143;SDS011;3103;49.492;8.474;2023-11-19T07:50:39;5.20;;;2.63;;
6143;SDS011;3103;49.492;8.474;2023-11-19T07:53:07;4.13;;;2.20;;
6143;SDS011;3103;49.492;8.474;2023-11-19T07:55:35;1.70;;;1.60;;
6143;SDS011;3103;49.492;8.474;2023-11-19T07:58:03;1.77;;;1.50;;
6143;SDS011;3103;49.492;8.474;2023-11-19T08:00:30;1.57;;;1.33;;
6143;SDS011;3103;49.492;8.474;2023-11-19T08:02:57;1.80;;;1.03;;
6143;SDS011;3103;49.492;8.474;2023-11-19T08:05:24;3.10;;;1.43;;
6143;SDS011;3103;49.492;8.474;2023-11-19T08:07:51;1.27;;;1.10;;
6143;SDS011;3103;49.492;8.474;2023-11-19T08:10:19;1.50;;;1.40;;
6143;SDS011;3103;49.492;8.474;2023-11-19T08:12:46;1.30;;;1.20;;
6143;SDS011;3103;49.492;8.474;2023-11-19T08:15:13;1.70;;;1.37;;
6143;SDS011;3103;49.492;8.474;2023-11-19T08:17:57;2.37;;;2.17;;
6143;SDS011;3103;49.492;8.474;2023-11-19T08:20:25;4.27;;;1.30;;
6143;SDS011;3103;49.492;8.474;2023-11-19T08:22:52;1.80;;;1.10;;
6143;SDS011;3103;49.492;8.474;2023-11-19T08:25:19;7.73;;;2.27;;
6143;SDS011;3103;49.492;8.474;2023-11-19T08:27:46;1.53;;;1.40;;
6143;SDS011;3103;49.492;8.474;2023-11-19T08:30:13;8.17;;;3.20;;
6143;SDS011;3103;49.492;8.474;2023-11-19T08:32:40;3.23;;;1.63;;
6143;SDS011;3103;49.492;8.474;2023-11-19T08:35:07;1.60;;;1.50;;
6143;SDS011;3103;49.492;8.474;2023-11-19T08:37:35;1.60;;;1.50;;
6143;SDS011;3103;49.492;8.474;2023-11-19T08:40:04;1.43;;;1.23;;
6143;SDS011;3103;49.492;8.474;2023-11-19T08:42:33;3.30;;;1.40;;
6143;SDS011;3103;49.492;8.474;2023-11-19T08:45:00;1.60;;;1.50;;
6143;SDS011;3103;49.492;8.474;2023-11-19T08:47:27;1.50;;;1.40;;
6143;SDS011;3103;49.492;8.474;2023-11-19T08:49:55;1.40;;;1.33;;
6143;SDS011;3103;49.492;8.474;2023-11-19T08:52:25;3.20;;;1.80;;
6143;SDS011;3103;49.492;8.474;2023-11-19T08:54:52;2.47;;;1.77;;
6143;SDS011;3103;49.492;8.474;2023-11-19T08:57:19;2.70;;;1.63;;
6143;SDS011;3103;49.492;8.474;2023-11-19T08:59:47;2.33;;;1.70;;
6143;SDS011;3103;49.492;8.474;2023-11-19T09:02:14;1.67;;;1.57;;
6143;SDS011;3103;49.492;8.474;2023-11-19T09:04:41;4.97;;;1.40;;
6143;SDS011;3103;49.492;8.474;2023-11-19T09:07:08;1.67;;;1.10;;
6143;SDS011;3103;49.492;8.474;2023-11-19T09:09:36;3.17;;;1.10;;
6143;SDS011;3103;49.492;8.474;2023-11-19T09:12:03;3.60;;;1.30;;
6143;SDS011;3103;49.492;8.474;2023-11-19T09:14:30;1.57;;;1.47;;
6143;SDS011;3103;49.492;8.474;2023-11-19T09:16:57;2.53;;;1.30;;
6143;SDS011;3103;49.492;8.474;2023-11-19T09:19:25;4.03;;;1.40;;
6143;SDS011;3103;49.492;8.474;2023-11-19T09:21:53;1.73;;;1.20;;
6143;SDS011;3103;49.492;8.474;2023-11-19T09:24:20;1.20;;;1.10;;
6143;SDS011;3103;49.492;8.474;2023-11-19T09:26:47;1.50;;;1.40;;
6143;SDS011;3103;49.492;8.474;2023-11-19T09:29:14;4.90;;;1.20;;
6143;SDS011;3103;49.492;8.474;2023-11-19T09:31:42;3.87;;;1.33;;
6143;SDS011;3103;49.492;8.474;2023-11-19T09:34:08;1.73;;;1.40;;
6143;SDS011;3103;49.492;8.474;2023-11-19T09:36:35;1.37;;;1.13;;
6143;SDS011;3103;49.492;8.474;2023-11-19T09:39:04;3.33;;;1.30;;
6143;SDS011;3103;49.492;8.474;2023-11-19T09:41:32;3.40;;;1.30;;
6143;SDS011;3103;49.492;8.474;2023-11-19T09:43:59;1.37;;;1.03;;
6143;SDS011;3103;49.492;8.474;2023-11-19T09:46:26;6.53;;;1.50;;
6143;SDS011;3103;49.492;8.474;2023-11-19T09:48:53;5.77;;;1.53;;
6143;SDS011;3103;49.492;8.474;2023-11-19T09:51:22;1.30;;;1.20;;
6143;SDS011;3103;49.492;8.474;2023-11-19T09:53:49;1.90;;;1.17;;
6143;SDS011;3103;49.492;8.474;2023-11-19T09:56:17;1.40;;;1.30;;
6143;SDS011;3103;49.492;8.474;2023-11-19T09:58:47;3.17;;;1.57;;
6143;SDS011;3103;49.492;8.474;2023-11-19T10:01:15;5.30;;;2.83;;
6143;SDS011;3103;49.492;8.474;2023-11-19T10:03:55;5.13;;;3.60;;
6143;SDS011;3103;49.492;8.474;2023-11-19T10:06:23;2.73;;;2.30;;
6143;SDS011;3103;49.492;8.474;2023-11-19T10:08:53;5.63;;;3.70;;
6143;SDS011;3103;49.492;8.474;2023-11-19T10:11:22;3.87;;;2.53;;
6143;SDS011;3103;49.492;8.474;2023-11-19T10:13:49;3.63;;;2.27;;
6143;SDS011;3103;49.492;8.474;2023-11-19T10:16:17;6.97;;;3.87;;
6143;SDS011;3103;49.492;8.474;2023-11-19T10:18:48;6.70;;;3.83;;
6143;SDS011;3103;49.492;8.474;2023-11-19T10:21:17;7.90;;;3.77;;
6143;SDS011;3103;49.492;8.474;2023-11-19T10:23:52;8.17;;;4.43;;
6143;SDS011;3103;49.492;8.474;2023-11-19T10:26:27;4.27;;;3.20;;
6143;SDS011;3103;49.492;8.474;2023-11-19T10:28:55;8.33;;;4.57;;
6143;SDS011;3103;49.492;8.474;2023-11-19T10:31:22;4.70;;;2.73;;
6143;SDS011;3103;49.492;8.474;2023-11-19T10:33:52;4.60;;;2.57;;
6143;SDS011;3103;49.492;8.474;2023-11-19T10:36:20;6.73;;;2.70;;
6143;SDS011;3103;49.492;8.474;2023-11-19T10:38:53;3.93;;;2.50;;
6143;SDS011;3103;49.492;8.474;2023-11-19T10:41:29;4.60;;;2.50;;
6143;SDS011;3103;49.492;8.474;2023-11-19T10:43:58;5.27;;;2.23;;
6143;SDS011;3103;49.492;8.474;2023-11-19T10:46:39;3.33;;;2.40;;
6143;SDS011;3103;49.492;8.474;2023-11-19T10:49:07;7.73;;;2.83;;
6143;SDS011;3103;49.492;8.474;2023-11-19T10:51:35;3.33;;;2.30;;
6143;SDS011;3103;49.492;8.474;2023-11-19T10:54:03;4.53;;;2.47;;
6143;SDS011;3103;49.492;8.474;2023-11-19T10:56:34;2.00;;;1.57;;
6143;SDS011;3103;49.492;8.474;2023-11-19T10:59:02;3.17;;;1.50;;
6143;SDS011;3103;49.492;8.474;2023-11-19T11:01:48;1.67;;;1.27;;
6143;SDS011;3103;49.492;8.474;2023-11-19T11:04:19;2.57;;;1.27;;
6143;SDS011;3103;49.492;8.474;2023-11-19T11:06:50;4.97;;;2.07;;
6143;SDS011;3103;49.492;8.474;2023-11-19T11:09:18;2.13;;;1.60;;
6143;SDS011;3103;49.492;8.474;2023-11-19T11:11:46;2.60;;;1.97;;
6143;SDS011;3103;49.492;8.474;2023-11-19T11:14:14;4.20;;;1.70;;
6143;SDS011;3103;49.492;8.474;2023-11-19T11:16:45;4.13;;;1.40;;
6143;SDS011;3103;49.492;8.474;2023-11-19T11:19:13;2.10;;;1.60;;
6143;SDS011;3103;49.492;8.474;2023-11-19T11:21:43;4.10;;;1.70;;
6143;SDS011;3103;49.492;8.474;2023-11-19T11:24:21;3.23;;;1.63;;
6143;SDS011;3103;49.492;8.474;2023-11-19T11:27:29;2.03;;;1.50;;
6143;SDS011;3103;49.492;8.474;2023-11-19T11:30:20;2.53;;;1.67;;
6143;SDS011;3103;49.492;8.474;2023-11-19T11:38:58;2.67;;;1.93;;
6143;SDS011;3103;49.492;8.474;2023-11-19T11:41:27;2.00;;;1.60;;
6143;SDS011;3103;49.492;8.474;2023-11-19T11:43:56;1.80;;;1.30;;
6143;SDS011;3103;49.492;8.474;2023-11-19T11:49:02;3.53;;;2.10;;
6143;SDS011;3103;49.492;8.474;2023-11-19T11:54:11;2.60;;;1.50;;
6143;SDS011;3103;49.492;8.474;2023-11-19T11:59:43;2.40;;;1.57;;
6143;SDS011;3103;49.492;8.474;2023-11-19T12:02:15;10.97;;;2.80;;
6143;SDS011;3103;49.492;8.474;2023-11-19T12:04:46;2.83;;;1.13;;
6143;SDS011;3103;49.492;8.474;2023-11-19T12:07:18;1.87;;;1.20;;
6143;SDS011;3103;49.492;8.474;2023-11-19T12:09:51;2.77;;;1.93;;
6143;SDS011;3103;49.492;8.474;2023-11-19T12:12:34;2.80;;;1.70;;
6143;SDS011;3103;49.492;8.474;2023-11-19T12:15:03;2.43;;;1.60;;
6143;SDS011;3103;49.492;8.474;2023-11-19T12:20:05;7.47;;;3.67;;
6143;SDS011;3103;49.492;8.474;2023-11-19T12:22:37;6.30;;;2.93;;
6143;SDS011;3103;49.492;8.474;2023-11-19T12:25:07;5.87;;;3.23;;
6143;SDS011;3103;49.492;8.474;2023-11-19T12:27:55;8.63;;;4.37;;
6143;SDS011;3103;49.492;8.474;2023-11-19T12:30:22;14.70;;;8.07;;
6143;SDS011;3103;49.492;8.474;2023-11-19T12:32:51;5.27;;;3.67;;
6143;SDS011;3103;49.492;8.474;2023-11-19T12:35:22;34.70;;;17.40;;
6143;SDS011;3103;49.492;8.474;2023-11-19T12:37:51;11.07;;;5.80;;
6143;SDS011;3103;49.492;8.474;2023-11-19T12:40:23;12.03;;;7.00;;
6143;SDS011;3103;49.492;8.474;2023-11-19T12:42:51;8.80;;;4.27;;
6143;SDS011;3103;49.492;8.474;2023-11-19T12:45:22;8.53;;;4.70;;
6143;SDS011;3103;49.492;8.474;2023-11-19T12:48:05;9.57;;;4.60;;
6143;SDS011;3103;49.492;8.474;2023-11-19T12:53:20;34.00;;;12.20;;
6143;SDS011;3103;49.492;8.474;2023-11-19T12:55:49;11.17;;;5.40;;
6143;SDS011;3103;49.492;8.474;2023-11-19T12:58:29;9.07;;;5.13;;
6143;SDS011;3103;49.492;8.474;2023-11-19T13:01:02;14.17;;;6.60;;
6143;SDS011;3103;49.492;8.474;2023-11-19T13:03:33;7.53;;;4.90;;
6143;SDS011;3103;49.492;8.474;2023-11-19T13:06:05;9.73;;;4.90;;
6143;SDS011;3103;49.492;8.474;2023-11-19T13:08:40;9.90;;;3.83;;
6143;SDS011;3103;49.492;8.474;2023-11-19T13:11:07;9.27;;;4.47;;
6143;SDS011;3103;49.492;8.474;2023-11-19T13:13:53;10.90;;;5.87;;
6143;SDS011;3103;49.492;8.474;2023-11-19T13:16:24;7.57;;;4.77;;
6143;SDS011;3103;49.492;8.474;2023-11-19T13:18:52;13.30;;;5.50;;
6143;SDS011;3103;49.492;8.474;2023-11-19T13:21:20;15.10;;;6.20;;
6143;SDS011;3103;49.492;8.474;2023-11-19T13:23:47;12.97;;;4.53;;
6143;SDS011;3103;49.492;8.474;2023-11-19T13:26:14;21.87;;;4.90;;
6143;SDS011;3103;49.492;8.474;2023-11-19T13:28:41;5.30;;;3.40;;
6143;SDS011;3103;49.492;8.474;2023-11-19T13:31:08;8.17;;;5.07;;
6143;SDS011;3103;49.492;8.474;2023-11-19T13:33:35;7.43;;;4.33;;
6143;SDS011;3103;49.492;8.474;2023-11-19T13:36:03;7.87;;;3.13;;
6143;SDS011;3103;49.492;8.474;2023-11-19T13:38:35;7.50;;;3.77;;
6143;SDS011;3103;49.492;8.474;2023-11-19T13:41:02;3.93;;;2.43;;
6143;SDS011;3103;49.492;8.474;2023-11-19T13:43:31;4.43;;;2.37;;
6143;SDS011;3103;49.492;8.474;2023-11-19T13:45:58;3.77;;;1.90;;
6143;SDS011;3103;49.492;8.474;2023-11-19T13:48:25;4.40;;;2.00;;
6143;SDS011;3103;49.492;8.474;2023-11-19T13:50:56;5.57;;;2.50;;
6143;SDS011;3103;49.492;8.474;2023-11-19T13:53:23;3.00;;;2.30;;
6143;SDS011;3103;49.492;8.474;2023-11-19T13:55:50;5.57;;;2.40;;
6143;SDS011;3103;49.492;8.474;2023-11-19T13:58:18;5.87;;;2.47;;
6143;SDS011;3103;49.492;8.474;2023-11-19T14:00:45;4.83;;;2.10;;
6143;SDS011;3103;49.492;8.474;2023-11-19T14:03:12;5.63;;;2.33;;
6143;SDS011;3103;49.492;8.474;2023-11-19T14:05:40;6.10;;;2.50;;
6143;SDS011;3103;49.492;8.474;2023-11-19T14:08:08;7.47;;;3.17;;
6143;SDS011;3103;49.492;8.474;2023-11-19T14:10:50;9.90;;;4.17;;
6143;SDS011;3103;49.492;8.474;2023-11-19T14:13:17;31.67;;;16.37;;
6143;SDS011;3103;49.492;8.474;2023-11-19T14:15:43;56.30;;;30.13;;
6143;SDS011;3103;49.492;8.474;2023-11-19T14:18:13;26.23;;;13.40;;
6143;SDS011;3103;49.492;8.474;2023-11-19T14:20:40;19.90;;;10.07;;
6143;SDS011;3103;49.492;8.474;2023-11-19T14:23:07;11.77;;;6.67;;
6143;SDS011;3103;49.492;8.474;2023-11-19T14:25:35;5.67;;;3.23;;
6143;SDS011;3103;49.492;8.474;2023-11-19T14:28:02;7.93;;;2.63;;
6143;SDS011;3103;49.492;8.474;2023-11-19T14:30:32;7.67;;;3.73;;
6143;SDS011;3103;49.492;8.474;2023-11-19T14:33:01;6.73;;;3.43;;
6143;SDS011;3103;49.492;8.474;2023-11-19T14:35:30;6.93;;;3.20;;
6143;SDS011;3103;49.492;8.474;2023-11-19T14:37:58;6.90;;;2.83;;
6143;SDS011;3103;49.492;8.474;2023-11-19T14:40:25;10.07;;;5.87;;
6143;SDS011;3103;49.492;8.474;2023-11-19T14:42:55;9.57;;;4.60;;
6143;SDS011;3103;49.492;8.474;2023-11-19T14:45:22;5.33;;;2.90;;
6143;SDS011;3103;49.492;8.474;2023-11-19T14:47:50;4.47;;;2.63;;
6143;SDS011;3103;49.492;8.474;2023-11-19T14:50:17;13.07;;;3.90;;
6143;SDS011;3103;49.492;8.474;2023-11-19T14:52:44;8.73;;;3.10;;
6143;SDS011;3103;49.492;8.474;2023-11-19T14:55:11;8.23;;;3.67;;
6143;SDS011;3103;49.492;8.474;2023-11-19T14:57:38;3.73;;;1.97;;
6143;SDS011;3103;49.492;8.474;2023-11-19T15:00:06;5.93;;;3.47;;
6143;SDS011;3103;49.492;8.474;2023-11-19T15:02:42;7.03;;;3.27;;
6143;SDS011;3103;49.492;8.474;2023-11-19T15:05:09;8.00;;;4.27;;
6143;SDS011;3103;49.492;8.474;2023-11-19T15:07:38;10.60;;;3.20;;
6143;SDS011;3103;49.492;8.474;2023-11-19T15:10:10;3.30;;;2.00;;
6143;SDS011;3103;49.492;8.474;2023-11-19T15:12:39;5.20;;;2.83;;
6143;SDS011;3103;49.492;8.474;2023-11-19T15:15:07;4.23;;;2.30;;
6143;SDS011;3103;49.492;8.474;2023-11-19T15:18:05;7.50;;;2.10;;
6143;SDS011;3103;49.492;8.474;2023-11-19T15:20:32;5.23;;;2.83;;
6143;SDS011;3103;49.492;8.474;2023-11-19T15:23:00;6.03;;;2.50;;
6143;SDS011;3103;49.492;8.474;2023-11-19T15:25:27;8.97;;;2.80;;
6143;SDS011;3103;49.492;8.474;2023-11-19T15:27:54;4.87;;;2.70;;
6143;SDS011;3103;49.492;8.474;2023-11-19T15:30:21;5.47;;;2.00;;
6143;SDS011;3103;49.492;8.474;2023-11-19T15:32:48;5.20;;;2.80;;
6143;SDS011;3103;49.492;8.474;2023-11-19T15:35:15;4.73;;;2.40;;
6143;SDS011;3103;49.492;8.474;2023-11-19T15:37:42;7.40;;;2.57;;
6143;SDS011;3103;49.492;8.474;2023-11-19T15:40:11;10.17;;;3.13;;
6143;SDS011;3103;49.492;8.474;2023-11-19T15:42:40;6.83;;;2.40;;
6143;SDS011;3103;49.492;8.474;2023-11-19T15:45:08;5.73;;;2.57;;
6143;SDS011;3103;49.492;8.474;2023-11-19T15:47:38;11.30;;;5.90;;